createdAt,value
2022-09-22T00:01:33.705Z,8.90
2022-09-22T00:04:06.069Z,8.90
2022-09-22T00:06:38.873Z,8.90
2022-09-22T00:09:09.407Z,8.90
2022-09-22T00:11:40.318Z,8.80
2022-09-22T00:14:10.934Z,8.80
2022-09-22T00:16:42.377Z,8.80
2022-09-22T00:19:16.225Z,8.80
2022-09-22T00:21:47.482Z,8.70
2022-09-22T00:24:16.867Z,8.80
2022-09-22T00:26:45.350Z,8.80
2022-09-22T00:29:14.346Z,8.70
2022-09-22T00:31:44.551Z,8.70
2022-09-22T00:34:17.005Z,8.70
2022-09-22T00:36:47.576Z,8.70
2022-09-22T00:39:17.333Z,8.70
2022-09-22T00:41:57.586Z,8.70
2022-09-22T00:44:38.585Z,8.60
2022-09-22T00:47:18.568Z,8.60
2022-09-22T00:49:51.809Z,8.60
2022-09-22T00:52:26.557Z,8.60
2022-09-22T00:54:58.240Z,8.50
2022-09-22T00:57:29.615Z,8.60
2022-09-22T00:59:58.693Z,8.50
2022-09-22T01:02:27.138Z,8.60
2022-09-22T01:04:55.502Z,8.50
2022-09-22T01:07:29.055Z,8.50
2022-09-22T01:09:58.013Z,8.50
2022-09-22T01:12:28.204Z,8.50
2022-09-22T01:15:14.672Z,8.60
2022-09-22T01:17:52.619Z,8.60
2022-09-22T01:20:41.793Z,8.60
2022-09-22T01:23:42.610Z,8.60
2022-09-22T01:26:42.967Z,8.60
2022-09-22T01:29:32.483Z,8.60
2022-09-22T01:32:10.751Z,8.60
2022-09-22T01:34:47.255Z,8.60
2022-09-22T01:37:23.189Z,8.60
2022-09-22T01:39:56.737Z,8.60
2022-09-22T01:42:31.515Z,8.60
2022-09-22T01:45:06.229Z,8.60
2022-09-22T01:47:40.738Z,8.60
2022-09-22T01:50:16.514Z,8.60
2022-09-22T01:52:45.795Z,8.60
2022-09-22T01:55:20.545Z,8.60
2022-09-22T01:57:54.575Z,8.70
2022-09-22T02:00:24.016Z,8.60
2022-09-22T02:02:59.183Z,8.70
2022-09-22T02:05:33.796Z,8.70
2022-09-22T02:08:05.294Z,8.70
2022-09-22T02:10:37.831Z,8.60
2022-09-22T02:13:06.190Z,8.70
2022-09-22T02:15:52.708Z,8.70
2022-09-22T02:18:27.196Z,8.70
2022-09-22T02:20:55.824Z,8.70
2022-09-22T02:23:24.188Z,8.70
2022-09-22T02:25:54.583Z,8.70
2022-09-22T02:28:25.049Z,8.70
2022-09-22T02:31:18.457Z,8.70
2022-09-22T02:33:47.152Z,8.70
2022-09-22T02:36:29.586Z,8.70
2022-09-22T02:39:04.808Z,8.70
2022-09-22T02:41:41.811Z,8.70
2022-09-22T02:44:16.816Z,8.70
2022-09-22T02:46:50.045Z,8.70
2022-09-22T02:49:21.081Z,8.70
2022-09-22T02:51:50.520Z,8.70
2022-09-22T02:54:18.821Z,8.70
2022-09-22T02:56:47.566Z,8.70
2022-09-22T02:59:15.953Z,8.70
2022-09-22T03:01:44.452Z,8.80
2022-09-22T03:04:13.062Z,8.80
2022-09-22T03:06:42.718Z,8.70
2022-09-22T03:09:11.055Z,8.70
2022-09-22T03:11:39.577Z,8.70
2022-09-22T03:14:07.845Z,8.70
2022-09-22T03:16:36.197Z,8.60
2022-09-22T03:19:04.994Z,8.60
2022-09-22T03:21:33.365Z,8.70
2022-09-22T03:24:03.373Z,8.60
2022-09-22T03:26:32.051Z,8.70
2022-09-22T03:29:00.370Z,8.70
2022-09-22T03:31:28.753Z,8.70
2022-09-22T03:33:57.297Z,8.70
2022-09-22T03:36:25.975Z,8.70
2022-09-22T03:38:54.418Z,8.80
2022-09-22T03:41:24.201Z,8.80
2022-09-22T03:43:52.960Z,8.80
2022-09-22T03:46:21.302Z,8.80
2022-09-22T03:48:49.953Z,8.80
2022-09-22T03:51:19.381Z,8.80
2022-09-22T03:53:47.545Z,8.80
2022-09-22T03:56:17.459Z,8.80
2022-09-22T03:58:47.223Z,8.80
2022-09-22T04:01:15.573Z,8.70
2022-09-22T04:03:44.250Z,8.70
2022-09-22T04:06:12.926Z,8.70
2022-09-22T04:08:41.497Z,8.70
2022-09-22T04:11:10.101Z,8.70
2022-09-22T04:13:41.555Z,8.70
2022-09-22T04:16:14.881Z,8.80
2022-09-22T04:18:43.270Z,8.80
2022-09-22T04:21:11.751Z,8.80
2022-09-22T04:23:40.263Z,8.90
2022-09-22T04:26:08.818Z,8.90
2022-09-22T04:28:37.134Z,9.00
2022-09-22T04:31:06.060Z,9.00
2022-09-22T04:33:36.049Z,9.00
2022-09-22T04:36:04.422Z,9.10
2022-09-22T04:38:33.015Z,9.10
2022-09-22T04:41:01.571Z,9.20
2022-09-22T04:43:31.162Z,9.20
2022-09-22T04:45:59.677Z,9.30
2022-09-22T04:48:28.150Z,9.30
2022-09-22T04:50:57.908Z,9.40
2022-09-22T04:53:26.612Z,9.50
2022-09-22T04:55:56.571Z,9.50
2022-09-22T04:58:25.030Z,9.60
2022-09-22T05:00:55.870Z,9.60
2022-09-22T05:03:24.379Z,9.50
2022-09-22T05:05:52.722Z,9.70
2022-09-22T05:08:22.690Z,9.70
2022-09-22T05:10:51.250Z,9.80
2022-09-22T05:13:19.710Z,9.90
2022-09-22T05:15:48.567Z,9.90
2022-09-22T05:18:16.969Z,10.00
2022-09-22T05:20:45.936Z,10.10
2022-09-22T05:23:14.490Z,10.20
2022-09-22T05:25:44.643Z,10.40
2022-09-22T05:28:13.594Z,10.40
2022-09-22T05:30:42.417Z,10.50
2022-09-22T05:33:10.768Z,10.60
2022-09-22T05:35:39.084Z,10.80
2022-09-22T05:38:07.742Z,10.80
2022-09-22T05:40:36.303Z,11.00
2022-09-22T05:43:06.080Z,11.10
2022-09-22T05:45:34.953Z,11.20
2022-09-22T05:48:03.481Z,11.30
2022-09-22T05:50:32.354Z,11.40
2022-09-22T05:53:05.905Z,11.40
2022-09-22T05:55:34.685Z,11.50
2022-09-22T05:58:05.145Z,11.50
2022-09-22T06:00:34.039Z,11.60
2022-09-22T06:03:02.532Z,11.70
2022-09-22T06:05:31.100Z,11.70
2022-09-22T06:08:02.898Z,11.80
2022-09-22T06:10:33.253Z,11.80
2022-09-22T06:13:02.721Z,11.90
2022-09-22T06:15:33.982Z,12.00
2022-09-22T06:18:02.923Z,12.00
2022-09-22T06:20:31.975Z,12.10
2022-09-22T06:23:00.377Z,12.20
2022-09-22T06:25:29.702Z,12.30
2022-09-22T06:28:04.802Z,12.50
2022-09-22T06:30:35.734Z,12.60
2022-09-22T06:33:04.531Z,12.70
2022-09-22T06:35:35.613Z,12.90
2022-09-22T06:38:04.626Z,13.00
2022-09-22T06:40:36.441Z,13.10
2022-09-22T06:43:07.639Z,13.30
2022-09-22T06:45:37.784Z,13.40
2022-09-22T06:48:10.164Z,13.60
2022-09-22T06:50:41.226Z,13.90
2022-09-22T06:53:12.545Z,14.30
2022-09-22T06:55:43.252Z,14.60
2022-09-22T06:58:12.837Z,15.00
2022-09-22T07:00:44.288Z,15.20
2022-09-22T07:03:19.647Z,15.50
2022-09-22T07:05:55.492Z,15.70
2022-09-22T07:08:24.927Z,16.00
2022-09-22T07:10:55.204Z,16.20
2022-09-22T07:13:24.049Z,16.20
2022-09-22T07:15:55.414Z,16.30
2022-09-22T07:18:24.037Z,16.30
2022-09-22T07:20:52.309Z,16.30
2022-09-22T07:23:21.434Z,16.40
2022-09-22T07:25:56.492Z,16.60
2022-09-22T07:28:25.919Z,16.80
2022-09-22T07:30:57.367Z,17.00
2022-09-22T07:33:25.987Z,17.30
2022-09-22T07:36:04.735Z,17.60
2022-09-22T07:38:36.420Z,17.80
2022-09-22T07:41:06.997Z,18.00
2022-09-22T07:43:36.352Z,18.10
2022-09-22T07:46:06.297Z,18.10
2022-09-22T07:48:37.832Z,18.10
2022-09-22T07:51:12.910Z,18.30
2022-09-22T07:53:45.875Z,18.80
2022-09-22T07:56:16.214Z,19.00
2022-09-22T07:58:50.006Z,19.00
2022-09-22T08:01:21.099Z,19.00
2022-09-22T08:03:50.545Z,19.10
2022-09-22T08:06:23.563Z,19.40
2022-09-22T08:08:56.663Z,19.70
2022-09-22T08:11:26.744Z,20.00
2022-09-22T08:13:57.182Z,20.30
2022-09-22T08:16:29.271Z,20.40
2022-09-22T08:18:59.315Z,20.60
2022-09-22T08:21:30.986Z,20.80
2022-09-22T08:24:00.937Z,21.00
2022-09-22T08:26:29.534Z,21.00
2022-09-22T08:28:59.032Z,20.90
2022-09-22T08:31:29.194Z,20.70
2022-09-22T08:33:57.769Z,20.50
2022-09-22T08:36:28.084Z,20.40
2022-09-22T08:38:57.925Z,20.40
2022-09-22T08:41:38.377Z,20.20
2022-09-22T08:44:22.333Z,20.10
2022-09-22T08:46:54.779Z,19.90
2022-09-22T08:49:44.356Z,19.70
2022-09-22T08:52:20.863Z,19.50
2022-09-22T08:54:50.097Z,19.30
2022-09-22T08:57:33.231Z,19.10
2022-09-22T09:00:06.476Z,19.00
2022-09-22T09:02:42.894Z,18.90
2022-09-22T09:05:55.997Z,18.80
2022-09-22T09:08:43.827Z,18.90
2022-09-22T09:14:12.216Z,18.90
2022-09-22T09:16:49.003Z,18.90
2022-09-22T09:19:23.197Z,19.00
2022-09-22T09:21:55.180Z,18.90
2022-09-22T09:27:24.272Z,18.80
2022-09-22T09:30:02.963Z,18.70
2022-09-22T09:32:38.849Z,18.80
2022-09-22T09:35:14.850Z,18.80
2022-09-22T09:37:46.170Z,18.80
2022-09-22T09:40:18.480Z,18.80
2022-09-22T09:42:51.080Z,18.80
2022-09-22T09:45:25.484Z,18.80
2022-09-22T09:48:07.668Z,18.90
2022-09-22T09:50:37.927Z,18.90
2022-09-22T09:53:08.681Z,18.90
2022-09-22T09:55:37.146Z,18.90
2022-09-22T09:58:08.425Z,19.00
2022-09-22T10:00:51.767Z,19.10
2022-09-22T10:03:27.984Z,19.20
2022-09-22T10:06:00.695Z,19.30
2022-09-22T10:08:35.166Z,19.30
2022-09-22T10:11:05.337Z,19.20
2022-09-22T10:13:36.422Z,19.10
2022-09-22T10:16:19.227Z,19.00
2022-09-22T10:18:48.712Z,18.90
2022-09-22T10:21:20.705Z,18.70
2022-09-22T10:23:51.733Z,18.60
2022-09-22T10:26:23.175Z,18.50
2022-09-22T10:29:18.215Z,18.30
2022-09-22T10:32:14.955Z,18.30
2022-09-22T10:37:25.967Z,18.50
2022-09-22T10:39:55.790Z,18.60
2022-09-22T10:42:33.471Z,18.90
2022-09-22T10:45:05.709Z,19.10
2022-09-22T10:47:51.418Z,19.20
2022-09-22T10:50:45.903Z,19.20
2022-09-22T10:53:36.528Z,19.20
2022-09-22T10:56:14.019Z,19.10
2022-09-22T10:59:21.288Z,19.10
2022-09-22T11:02:00.415Z,19.30
2022-09-22T11:04:57.738Z,19.40
2022-09-22T11:08:07.399Z,19.50
2022-09-22T11:11:01.946Z,19.40
2022-09-22T11:13:42.009Z,19.20
2022-09-22T11:16:34.541Z,19.10
2022-09-22T11:19:24.788Z,19.00
2022-09-22T11:22:13.418Z,18.90
2022-09-22T11:24:56.004Z,18.70
2022-09-22T11:27:37.635Z,18.60
2022-09-22T11:30:16.881Z,18.50
2022-09-22T11:33:05.737Z,18.50
2022-09-22T11:35:48.406Z,18.40
2022-09-22T11:38:30.547Z,18.30
2022-09-22T11:41:20.557Z,18.20
2022-09-22T11:44:34.419Z,18.00
2022-09-22T11:47:24.073Z,17.70
2022-09-22T11:50:11.680Z,17.50
2022-09-22T11:52:58.364Z,17.50
2022-09-22T11:55:36.549Z,17.50
2022-09-22T11:58:12.649Z,17.60
2022-09-22T12:00:47.221Z,17.70
2022-09-22T12:03:21.348Z,17.80
2022-09-22T12:05:54.414Z,17.90
2022-09-22T12:08:26.835Z,18.00
2022-09-22T12:10:56.505Z,18.00
2022-09-22T12:13:27.356Z,18.00
2022-09-22T12:16:07.025Z,18.00
2022-09-22T12:18:44.645Z,18.10
2022-09-22T12:21:29.465Z,18.10
2022-09-22T12:24:02.086Z,18.20
2022-09-22T12:26:33.070Z,18.20
2022-09-22T12:29:04.642Z,18.20
2022-09-22T12:31:36.092Z,18.30
2022-09-22T12:34:15.526Z,18.30
2022-09-22T12:36:44.440Z,18.40
2022-09-22T12:39:18.915Z,18.40
2022-09-22T12:41:52.351Z,18.30
2022-09-22T12:44:24.135Z,18.20
2022-09-22T12:46:54.771Z,18.10
2022-09-22T12:49:24.579Z,18.00
2022-09-22T12:51:53.358Z,18.00
2022-09-22T12:54:43.057Z,17.90
2022-09-22T12:57:29.464Z,17.80
2022-09-22T13:00:08.390Z,17.80
2022-09-22T13:02:43.551Z,17.70
2022-09-22T13:05:36.543Z,17.70
2022-09-22T13:08:05.583Z,17.70
2022-09-22T13:10:59.645Z,17.80
2022-09-22T13:13:37.707Z,17.90
2022-09-22T13:16:25.954Z,18.00
2022-09-22T13:19:00.532Z,18.00
2022-09-22T13:21:31.306Z,18.10
2022-09-22T13:24:01.724Z,18.00
2022-09-22T13:26:32.468Z,18.00
2022-09-22T13:29:07.115Z,18.00
2022-09-22T13:31:44.233Z,18.00
2022-09-22T13:34:29.168Z,18.00
2022-09-22T13:37:02.000Z,18.00
2022-09-22T13:39:35.135Z,17.90
2022-09-22T13:42:08.319Z,17.80
2022-09-22T13:44:41.925Z,17.70
2022-09-22T13:47:25.120Z,17.60
2022-09-22T13:49:56.342Z,17.50
2022-09-22T13:52:29.927Z,17.50
2022-09-22T13:55:01.723Z,17.40
2022-09-22T13:57:32.557Z,17.40
2022-09-22T14:00:02.249Z,17.20
2022-09-22T14:02:32.423Z,17.20
2022-09-22T14:05:04.125Z,17.10
2022-09-22T14:07:49.474Z,17.10
2022-09-22T14:10:28.020Z,17.00
2022-09-22T14:12:57.007Z,16.90
2022-09-22T14:15:43.599Z,16.80
2022-09-22T14:18:18.205Z,16.70
2022-09-22T14:20:46.687Z,16.70
2022-09-22T14:23:23.185Z,16.60
2022-09-22T14:25:51.681Z,16.50
2022-09-22T14:28:24.997Z,16.40
2022-09-22T14:30:53.739Z,16.30
2022-09-22T14:33:25.988Z,16.20
2022-09-22T14:36:01.921Z,16.20
2022-09-22T14:38:37.510Z,16.20
2022-09-22T14:41:23.235Z,16.10
2022-09-22T14:43:53.112Z,16.20
2022-09-22T14:46:25.592Z,16.30
2022-09-22T14:48:55.343Z,16.30
2022-09-22T14:51:26.187Z,16.30
2022-09-22T14:54:01.635Z,16.40
2022-09-22T14:56:34.110Z,16.40
2022-09-22T14:59:26.160Z,16.40
2022-09-22T15:02:13.614Z,16.40
2022-09-22T15:04:47.532Z,16.40
2022-09-22T15:07:24.758Z,16.40
2022-09-22T15:09:57.279Z,16.40
2022-09-22T15:12:37.880Z,16.30
2022-09-22T15:15:20.474Z,16.30
2022-09-22T15:18:08.044Z,16.20
2022-09-22T15:20:41.153Z,16.10
2022-09-22T15:23:22.015Z,16.10
2022-09-22T15:25:52.194Z,16.10
2022-09-22T15:28:23.772Z,16.00
2022-09-22T15:30:53.563Z,16.10
2022-09-22T15:33:22.803Z,16.00
2022-09-22T15:35:56.475Z,16.00
2022-09-22T15:38:27.941Z,16.00
2022-09-22T15:40:58.275Z,15.90
2022-09-22T15:43:30.895Z,15.90
2022-09-22T15:46:02.318Z,15.90
2022-09-22T15:48:32.997Z,15.80
2022-09-22T15:51:06.033Z,15.80
2022-09-22T15:53:35.863Z,15.80
2022-09-22T15:56:07.386Z,15.70
2022-09-22T15:58:38.036Z,15.70
2022-09-22T16:01:07.945Z,15.60
2022-09-22T16:03:41.066Z,15.50
2022-09-22T16:06:12.908Z,15.40
2022-09-22T16:08:44.619Z,15.40
2022-09-22T16:11:16.263Z,15.30
2022-09-22T16:13:45.155Z,15.30
2022-09-22T16:16:13.646Z,15.20
2022-09-22T16:18:42.361Z,15.20
2022-09-22T16:21:20.745Z,15.20
2022-09-22T16:23:51.266Z,15.10
2022-09-22T16:26:21.495Z,15.10
2022-09-22T16:28:49.886Z,15.10
2022-09-22T16:31:19.148Z,15.00
2022-09-22T16:33:54.061Z,15.00
2022-09-22T16:36:22.734Z,15.00
2022-09-22T16:38:51.432Z,15.00
2022-09-22T16:41:29.513Z,14.90
2022-09-22T16:43:59.286Z,14.90
2022-09-22T16:46:30.214Z,14.80
2022-09-22T16:49:00.795Z,14.80
2022-09-22T16:51:30.023Z,14.70
2022-09-22T16:53:58.720Z,14.60
2022-09-22T16:56:30.763Z,14.60
2022-09-22T16:59:01.333Z,14.50
2022-09-22T17:01:32.113Z,14.40
2022-09-22T17:04:00.639Z,14.30
2022-09-22T17:06:29.445Z,14.20
2022-09-22T17:08:59.989Z,14.10
2022-09-22T17:11:33.114Z,14.10
2022-09-22T17:14:04.655Z,14.00
2022-09-22T17:16:36.399Z,14.00
2022-09-22T17:19:06.856Z,13.90
2022-09-22T17:21:37.396Z,13.80
2022-09-22T17:24:09.314Z,13.70
2022-09-22T17:26:41.864Z,13.60
2022-09-22T17:29:11.027Z,13.50
2022-09-22T17:31:41.251Z,13.40
2022-09-22T17:34:10.589Z,13.20
2022-09-22T17:36:39.687Z,13.10
2022-09-22T17:39:10.559Z,13.00
2022-09-22T17:41:45.492Z,12.90
2022-09-22T17:44:19.210Z,12.80
2022-09-22T17:47:01.816Z,12.70
2022-09-22T17:49:47.496Z,12.60
2022-09-22T17:52:35.057Z,12.50
2022-09-22T17:55:08.167Z,12.40
2022-09-22T17:57:41.126Z,12.30
2022-09-22T18:00:13.113Z,12.20
2022-09-22T18:02:41.723Z,12.20
2022-09-22T18:05:12.921Z,12.10
2022-09-22T18:07:42.103Z,12.10
2022-09-22T18:10:12.627Z,12.00
2022-09-22T18:12:42.826Z,12.00
2022-09-22T18:15:13.977Z,12.00
2022-09-22T18:17:43.753Z,11.90
2022-09-22T18:20:14.085Z,11.90
2022-09-22T18:22:47.730Z,11.90
2022-09-22T18:25:19.509Z,11.80
2022-09-22T18:27:49.491Z,11.80
2022-09-22T18:30:19.879Z,11.70
2022-09-22T18:32:49.386Z,11.70
2022-09-22T18:35:18.571Z,11.60
2022-09-22T18:37:47.833Z,11.60
2022-09-22T18:40:17.169Z,11.50
2022-09-22T18:42:46.375Z,11.40
2022-09-22T18:45:17.007Z,11.40
2022-09-22T18:47:45.368Z,11.30
2022-09-22T18:50:14.280Z,11.20
2022-09-22T18:52:46.700Z,11.20
2022-09-22T18:55:18.830Z,11.10
2022-09-22T18:57:48.467Z,11.00
2022-09-22T19:00:20.922Z,11.00
2022-09-22T19:02:50.437Z,10.90
2022-09-22T19:05:19.602Z,10.90
2022-09-22T19:07:48.406Z,10.80
2022-09-22T19:10:21.782Z,10.80
2022-09-22T19:12:50.923Z,10.80
2022-09-22T19:15:21.360Z,10.70
2022-09-22T19:17:51.048Z,10.70
2022-09-22T19:20:23.348Z,10.70
2022-09-22T19:22:54.002Z,10.60
2022-09-22T19:25:23.558Z,10.70
2022-09-22T19:27:53.557Z,10.80
2022-09-22T19:30:27.552Z,10.90
2022-09-22T19:32:59.144Z,11.00
2022-09-22T19:35:29.473Z,11.20
2022-09-22T19:37:58.013Z,11.30
2022-09-22T19:40:26.950Z,11.40
2022-09-22T19:42:56.009Z,11.50
2022-09-22T19:45:27.485Z,11.60
2022-09-22T19:47:56.977Z,11.70
2022-09-22T19:50:27.394Z,11.70
2022-09-22T19:52:56.213Z,11.80
2022-09-22T19:55:24.893Z,11.90
2022-09-22T19:57:54.077Z,11.90
2022-09-22T20:00:26.229Z,11.90
2022-09-22T20:02:59.358Z,12.00
2022-09-22T20:05:30.559Z,12.00
2022-09-22T20:07:59.561Z,12.00
2022-09-22T20:10:28.803Z,12.00
2022-09-22T20:12:57.183Z,12.00
2022-09-22T20:15:26.494Z,12.00
2022-09-22T20:17:56.913Z,12.00
2022-09-22T20:20:28.748Z,12.00
2022-09-22T20:23:00.529Z,12.00
2022-09-22T20:25:31.277Z,11.90
2022-09-22T20:28:00.843Z,11.90
2022-09-22T20:30:29.472Z,11.90
2022-09-22T20:32:59.762Z,11.90
2022-09-22T20:35:28.520Z,11.90
2022-09-22T20:37:58.243Z,11.90
2022-09-22T20:40:27.943Z,11.80
2022-09-22T20:42:56.875Z,11.80
2022-09-22T20:45:25.401Z,11.80
2022-09-22T20:47:54.267Z,11.70
2022-09-22T20:50:24.350Z,11.70
2022-09-22T20:52:52.768Z,11.60
2022-09-22T20:55:22.223Z,11.60
2022-09-22T20:57:50.973Z,11.60
2022-09-22T21:00:19.585Z,11.50
2022-09-22T21:02:48.526Z,11.50
2022-09-22T21:05:17.395Z,11.40
2022-09-22T21:07:47.293Z,11.50
2022-09-22T21:10:41.364Z,11.40
2022-09-22T21:13:10.046Z,11.40
2022-09-22T21:15:39.223Z,11.30
2022-09-22T21:18:07.873Z,11.30
2022-09-22T21:20:36.579Z,11.20
2022-09-22T21:23:06.444Z,11.20
2022-09-22T21:25:35.020Z,11.20
2022-09-22T21:28:04.232Z,11.10
2022-09-22T21:30:32.924Z,11.10
2022-09-22T21:33:02.760Z,11.10
2022-09-22T21:35:31.612Z,11.00
2022-09-22T21:38:00.001Z,11.00
2022-09-22T21:40:29.874Z,11.00
2022-09-22T21:42:58.581Z,11.00
2022-09-22T21:45:27.067Z,11.00
2022-09-22T21:47:55.566Z,11.00
2022-09-22T21:50:24.287Z,10.90
2022-09-22T21:52:52.875Z,10.90
2022-09-22T21:55:21.409Z,10.80
2022-09-22T21:57:53.518Z,10.80
2022-09-22T22:01:17.141Z,10.80
2022-09-22T22:03:48.543Z,10.80
2022-09-22T22:06:19.397Z,10.70
2022-09-22T22:08:51.101Z,10.70
2022-09-22T22:11:22.345Z,10.60
2022-09-22T22:13:54.103Z,10.60
2022-09-22T22:16:24.807Z,10.60
2022-09-22T22:18:53.745Z,10.50
2022-09-22T22:21:23.859Z,10.50
2022-09-22T22:23:54.209Z,10.40
2022-09-22T22:26:26.349Z,10.40
2022-09-22T22:28:56.199Z,10.30
2022-09-22T22:31:25.416Z,10.30
2022-09-22T22:33:53.938Z,10.30
2022-09-22T22:36:24.144Z,10.20
2022-09-22T22:38:53.819Z,10.20
2022-09-22T22:41:22.161Z,10.10
2022-09-22T22:43:51.153Z,10.10
2022-09-22T22:46:21.476Z,10.10
2022-09-22T22:48:50.117Z,10.00
2022-09-22T22:51:21.745Z,9.90
2022-09-22T22:53:50.570Z,9.90
2022-09-22T22:56:20.407Z,9.90
2022-09-22T22:58:50.126Z,9.90
2022-09-22T23:01:22.447Z,9.80
2022-09-22T23:03:53.217Z,9.80
2022-09-22T23:06:23.414Z,9.80
2022-09-22T23:08:52.656Z,9.80
2022-09-22T23:11:23.965Z,9.70
2022-09-22T23:13:54.413Z,9.70
2022-09-22T23:16:25.627Z,9.60
2022-09-22T23:18:54.677Z,9.60
2022-09-22T23:21:24.167Z,9.60
2022-09-22T23:23:52.449Z,9.60
2022-09-22T23:26:21.372Z,9.50
2022-09-22T23:28:49.796Z,9.50
2022-09-22T23:31:21.545Z,9.50
2022-09-22T23:33:52.886Z,9.40
2022-09-22T23:36:22.777Z,9.40
2022-09-22T23:38:54.556Z,9.40
2022-09-22T23:41:23.208Z,9.30
2022-09-22T23:43:52.073Z,9.30
2022-09-22T23:46:21.231Z,9.30
2022-09-22T23:48:51.222Z,9.20
2022-09-22T23:51:20.038Z,9.20
2022-09-22T23:53:48.477Z,9.20
2022-09-22T23:56:16.729Z,9.10
2022-09-22T23:58:45.449Z,9.10
